メインページ
METAR-TAF:

METAR-TAF

空港 :

ベレン, パラー州, ブラジル

緯度: 01-23S, 経度: 048-29W, 海抜: 16m

現時点の気象観測

当レポートは36分前の03:00(UTC)に作成
東/北東の風 5kt
気温 25°C
湿度 89%
気圧 1014 hPa
視程10km以上
高度4000ftの雲はほとんどない

METAR: SBBE 260300Z 06005KT 9999 FEW040 25/23 Q1014

時間: 00:36 (03:36 UTC)

予報

当レポートは5時間36分前の22:00(UTC)に作成
予報は26日の 00時(UTC)から 26日の 24時(UTC)まで有効
の風 5kt
視程10km以上
高度3000ftの雲は散在している
26日の 02時(UTC)から 26日の 04時(UTC)まで徐々に
東/北東の風 5kt
視程10km以上
1,500メートル以下は雲なし、積乱雲なし
26日の 09時(UTC)から 26日の 11時(UTC)まで徐々に
の風 10kt
視程10km以上
高度2000ftの雲は散在している
間 26から UTC徐々に
東/南東の風 5kt
26日の 16時(UTC)から 26日の 17時(UTC)まで徐々に
北/北西の風 10kt
視程: 9000m
高度2000ftの千切れ雲あり
高度2500ftの雲はほとんどない, 積乱雲.
激しい雷雨, 雨
間 26から20 UTC徐々に
の風 5kt
視程10km以上
高度3000ftの雲は散在している

TAF: SBBE 252200Z 2600/2624 36005KT 9999 SCT030 TN24/2607Z TX31/2616Z BECMG 2602/2604 07005KT CAVOK BECMG 2609/2611 08010KT 9999 SCT020 BECMG 26 13/2614 12005KT BECMG 2616/2617 34010KT 9000 TSRA BKN020 FEW025CB BECMG 2620 /2622 36005KT 9999 SCT030 RMK PEO

4,000以上の空港の気象観測と天気予報(METAR報とTAF報)

利用可能な観測所は地図上に黄色い丸と赤い丸で示す。

丸の上にカーソルを重ねると観測所名を参照できる。

次にクリックすると気象観測と天気予報を参照できる。

マップの切り替え:黒色「×」印の緑ボタンをクリックして拡大、「-」印の緑ボタンをクリックして縮小、緑色の三角印をクリックして隣りの地図に切り替え


METAR-TAF: